createdAt,value
2023-05-05T00:02:23.367Z,12.51
2023-05-05T00:07:28.894Z,12.46
2023-05-05T00:12:34.432Z,12.46
2023-05-05T00:17:39.951Z,12.42
2023-05-05T00:22:45.443Z,12.47
2023-05-05T00:27:50.940Z,12.44
2023-05-05T00:32:57.463Z,12.34
2023-05-05T00:38:04.320Z,12.31
2023-05-05T00:43:09.986Z,12.40
2023-05-05T00:48:17.997Z,12.40
2023-05-05T00:53:23.936Z,12.35
2023-05-05T00:58:31.400Z,12.34
2023-05-05T01:03:43.296Z,12.29
2023-05-05T01:09:10.174Z,12.28
2023-05-05T01:14:22.920Z,12.31
2023-05-05T01:19:55.746Z,12.33
2023-05-05T01:25:20.715Z,12.34
2023-05-05T01:31:03.359Z,12.36
2023-05-05T01:36:29.709Z,12.33
2023-05-05T01:41:45.502Z,12.31
2023-05-05T01:46:53.212Z,12.27
2023-05-05T01:51:59.569Z,12.30
2023-05-05T01:57:08.519Z,12.32
2023-05-05T02:02:15.793Z,12.29
2023-05-05T02:07:22.826Z,12.25
2023-05-05T02:12:29.943Z,12.26
2023-05-05T02:17:35.905Z,12.23
2023-05-05T02:22:42.690Z,12.17
2023-05-05T02:27:49.568Z,12.13
2023-05-05T02:33:01.197Z,12.17
2023-05-05T02:38:09.467Z,12.14
2023-05-05T02:43:19.898Z,12.15
2023-05-05T02:48:27.742Z,12.11
2023-05-05T02:53:34.979Z,12.10
2023-05-05T02:58:46.268Z,12.05
2023-05-05T03:04:00.958Z,12.09
2023-05-05T03:09:16.909Z,12.08
2023-05-05T03:14:24.306Z,12.08
2023-05-05T03:19:30.886Z,12.06
2023-05-05T03:24:38.191Z,12.10
2023-05-05T03:29:45.323Z,12.04
2023-05-05T03:34:52.101Z,12.04
2023-05-05T03:39:59.236Z,11.98
2023-05-05T03:45:05.546Z,11.97
2023-05-05T03:50:11.448Z,11.91
2023-05-05T03:55:17.309Z,11.90
2023-05-05T04:00:23.106Z,11.86
2023-05-05T04:05:29.673Z,11.82
2023-05-05T04:10:35.853Z,11.84
2023-05-05T04:15:47.056Z,11.82
2023-05-05T04:20:52.853Z,11.82
2023-05-05T04:25:59.472Z,11.87
2023-05-05T04:31:06.669Z,11.82
2023-05-05T04:36:13.817Z,11.87
2023-05-05T04:41:19.689Z,11.95
2023-05-05T04:46:26.597Z,11.88
2023-05-05T04:51:33.419Z,11.91
2023-05-05T04:56:39.087Z,11.95
2023-05-05T05:01:44.789Z,11.97
2023-05-05T05:06:50.694Z,11.98
2023-05-05T05:12:02.908Z,12.00
2023-05-05T05:17:08.756Z,12.10
2023-05-05T05:22:14.549Z,12.02
2023-05-05T05:27:20.819Z,12.04
2023-05-05T05:32:27.032Z,12.01
2023-05-05T05:37:32.890Z,12.11
2023-05-05T05:42:40.163Z,12.05
2023-05-05T05:47:46.094Z,12.36
2023-05-05T05:52:51.954Z,12.63
2023-05-05T05:57:57.721Z,12.88
2023-05-05T06:03:03.750Z,12.98
2023-05-05T06:08:11.129Z,13.11
2023-05-05T06:13:18.428Z,13.15
2023-05-05T06:18:25.722Z,13.28
2023-05-05T06:23:31.903Z,13.26
2023-05-05T06:28:39.526Z,13.18
2023-05-05T06:33:45.157Z,12.99
2023-05-05T06:38:50.971Z,12.93
2023-05-05T06:43:56.406Z,12.86
2023-05-05T06:49:01.998Z,13.06
2023-05-05T06:54:07.742Z,12.99
2023-05-05T06:59:13.252Z,12.98
2023-05-05T07:04:18.908Z,12.83
2023-05-05T07:09:24.577Z,12.94
2023-05-05T07:14:30.033Z,11.75
2023-05-05T07:19:35.468Z,13.06
2023-05-05T07:24:41.072Z,13.07
2023-05-05T07:29:46.778Z,13.29
2023-05-05T07:34:52.487Z,13.32
2023-05-05T07:39:57.984Z,13.37
2023-05-05T07:45:03.659Z,13.60
2023-05-05T07:50:10.326Z,13.64
2023-05-05T07:55:16.153Z,13.51
2023-05-05T08:00:22.056Z,13.46
2023-05-05T08:05:27.583Z,13.56
2023-05-05T08:10:33.295Z,13.56
2023-05-05T08:15:38.830Z,13.65
2023-05-05T08:20:44.391Z,13.69
2023-05-05T08:25:50.774Z,13.79
2023-05-05T08:30:56.296Z,14.02
2023-05-05T08:36:03.097Z,14.15
2023-05-05T08:41:10.868Z,14.23
2023-05-05T08:46:17.163Z,14.23
2023-05-05T08:51:25.267Z,14.25
2023-05-05T08:56:39.636Z,14.12
2023-05-05T09:01:46.168Z,14.28
2023-05-05T09:06:52.247Z,14.41
2023-05-05T09:12:02.525Z,14.52
2023-05-05T09:17:09.786Z,14.92
2023-05-05T09:22:15.382Z,14.88
2023-05-05T09:27:23.570Z,14.82
2023-05-05T09:32:30.604Z,14.89
2023-05-05T09:37:36.245Z,15.00
2023-05-05T09:42:42.399Z,15.08
2023-05-05T09:47:49.604Z,15.40
2023-05-05T09:53:05.302Z,15.51
2023-05-05T09:58:28.326Z,15.68
2023-05-05T10:03:33.829Z,15.49
2023-05-05T10:08:39.344Z,15.84
2023-05-05T10:13:49.011Z,16.15
2023-05-05T10:18:54.821Z,16.19
2023-05-05T10:24:06.290Z,16.42
2023-05-05T10:29:31.946Z,16.52
2023-05-05T10:34:56.960Z,16.73
2023-05-05T10:40:03.671Z,16.68
2023-05-05T10:45:18.518Z,16.74
2023-05-05T10:50:30.165Z,16.64
2023-05-05T10:55:42.909Z,16.70
2023-05-05T11:00:51.399Z,16.78
2023-05-05T11:06:08.832Z,17.04
2023-05-05T11:11:14.731Z,17.03
2023-05-05T11:16:47.382Z,17.16
2023-05-05T11:22:03.478Z,17.25
2023-05-05T11:32:43.146Z,17.46
2023-05-05T11:37:52.524Z,17.40
2023-05-05T11:43:07.665Z,17.44
2023-05-05T11:48:28.686Z,17.67
2023-05-05T11:54:00.651Z,17.54
2023-05-05T11:59:11.640Z,17.55
2023-05-05T12:04:18.310Z,17.81
2023-05-05T12:09:24.800Z,17.95
2023-05-05T12:14:33.791Z,18.10
2023-05-05T12:19:48.164Z,18.44
2023-05-05T12:24:58.358Z,18.46
2023-05-05T12:30:18.229Z,18.73
2023-05-05T12:35:24.041Z,18.86
2023-05-05T12:40:48.867Z,18.93
2023-05-05T12:46:17.825Z,18.73
2023-05-05T12:51:24.276Z,18.65
2023-05-05T12:56:41.158Z,18.90
2023-05-05T13:02:02.972Z,19.01
2023-05-05T13:07:13.763Z,19.16
2023-05-05T13:18:16.354Z,19.24
2023-05-05T13:23:22.711Z,19.20
2023-05-05T13:28:28.844Z,19.44
2023-05-05T13:33:37.768Z,19.58
2023-05-05T13:38:48.044Z,19.64
2023-05-05T13:43:53.916Z,19.81
2023-05-05T13:48:59.429Z,20.07
2023-05-05T13:54:05.490Z,20.23
2023-05-05T13:59:12.957Z,20.18
2023-05-05T14:04:18.557Z,20.39
2023-05-05T14:09:24.769Z,20.76
2023-05-05T14:14:30.561Z,20.63
2023-05-05T14:19:36.568Z,20.57
2023-05-05T14:24:43.788Z,20.72
2023-05-05T14:29:55.432Z,20.64
2023-05-05T14:35:08.780Z,20.84
2023-05-05T14:40:23.746Z,20.86
2023-05-05T14:45:29.771Z,21.09
2023-05-05T14:50:35.858Z,21.12
2023-05-05T14:55:41.530Z,21.22
2023-05-05T15:00:47.870Z,21.23
2023-05-05T15:05:53.496Z,21.28
2023-05-05T15:11:01.032Z,21.04
2023-05-05T15:16:10.541Z,20.62
2023-05-05T15:21:17.909Z,20.59
2023-05-05T15:26:24.220Z,20.38
2023-05-05T15:31:29.867Z,20.85
2023-05-05T15:36:37.075Z,21.17
2023-05-05T15:41:42.612Z,21.29
2023-05-05T15:46:50.356Z,21.40
2023-05-05T15:51:55.863Z,21.09
2023-05-05T15:57:03.284Z,21.85
2023-05-05T16:02:08.871Z,22.71
2023-05-05T16:07:14.555Z,21.87
2023-05-05T16:12:21.038Z,21.88
2023-05-05T16:17:26.633Z,21.36
2023-05-05T16:22:32.148Z,21.46
2023-05-05T16:27:37.672Z,21.35
2023-05-05T16:32:46.604Z,21.54
2023-05-05T16:37:52.747Z,21.97
2023-05-05T16:42:59.154Z,21.25
2023-05-05T16:48:07.418Z,20.41
2023-05-05T16:53:16.770Z,20.35
2023-05-05T16:58:23.247Z,20.70
2023-05-05T17:03:29.692Z,20.38
2023-05-05T17:08:37.810Z,20.19
2023-05-05T17:13:49.590Z,19.45
2023-05-05T17:19:05.014Z,19.08
2023-05-05T17:24:11.929Z,18.81
2023-05-05T17:29:19.095Z,18.52
2023-05-05T17:34:24.679Z,18.36
2023-05-05T17:39:31.324Z,18.42
2023-05-05T17:44:36.843Z,18.33
2023-05-05T17:49:42.668Z,17.83
2023-05-05T17:54:49.108Z,17.76
2023-05-05T17:59:55.632Z,17.68
2023-05-05T18:05:01.775Z,17.40
2023-05-05T18:10:10.760Z,17.26
2023-05-05T18:15:17.131Z,17.09
2023-05-05T18:20:22.836Z,16.82
2023-05-05T18:25:28.425Z,16.57
2023-05-05T18:30:34.314Z,16.42
2023-05-05T18:35:39.827Z,16.47
2023-05-05T18:40:50.135Z,16.29
2023-05-05T18:45:55.894Z,16.44
2023-05-05T18:51:05.751Z,16.15
2023-05-05T18:56:21.822Z,15.90
2023-05-05T19:01:27.720Z,15.77
2023-05-05T19:06:33.501Z,15.71
2023-05-05T19:11:40.725Z,15.49
2023-05-05T19:16:46.379Z,15.39
2023-05-05T19:21:52.278Z,15.28
2023-05-05T19:26:57.834Z,15.19
2023-05-05T19:32:12.850Z,15.10
2023-05-05T19:37:18.603Z,15.05
2023-05-05T19:42:24.224Z,14.94
2023-05-05T19:47:31.516Z,14.77
2023-05-05T19:52:38.434Z,14.71
2023-05-05T19:57:43.993Z,14.52
2023-05-05T20:02:49.750Z,14.41
2023-05-05T20:07:55.523Z,14.24
2023-05-05T20:13:01.073Z,14.16
2023-05-05T20:18:07.995Z,14.17
2023-05-05T20:23:14.338Z,14.02
2023-05-05T20:28:19.931Z,13.98
2023-05-05T20:33:26.411Z,13.95
2023-05-05T20:38:32.023Z,13.80
2023-05-05T20:43:38.436Z,13.83
2023-05-05T20:48:45.054Z,13.70
2023-05-05T20:53:50.814Z,13.58
2023-05-05T20:58:56.906Z,13.55
2023-05-05T21:04:02.818Z,13.51
2023-05-05T21:09:08.367Z,13.46
2023-05-05T21:14:13.906Z,13.46
2023-05-05T21:19:19.693Z,13.56
2023-05-05T21:24:25.283Z,13.34
2023-05-05T21:29:32.406Z,13.21
2023-05-05T21:34:40.218Z,14.20
2023-05-05T21:39:45.859Z,13.44
2023-05-05T21:44:53.080Z,13.16
2023-05-05T21:49:59.897Z,13.05
2023-05-05T21:55:10.066Z,12.91
2023-05-05T22:00:16.948Z,12.87
2023-05-05T22:05:23.510Z,12.74
2023-05-05T22:10:29.334Z,12.61
2023-05-05T22:15:45.981Z,12.49
2023-05-05T22:20:44.445Z,12.53
2023-05-05T22:25:50.362Z,12.47
2023-05-05T22:30:55.967Z,12.44
2023-05-05T22:36:01.446Z,12.20
2023-05-05T22:41:08.464Z,12.07
2023-05-05T22:46:15.188Z,12.09
2023-05-05T22:51:20.639Z,12.07
2023-05-05T22:56:26.218Z,11.97
2023-05-05T23:01:32.265Z,11.98
2023-05-05T23:06:39.371Z,11.92
2023-05-05T23:11:45.957Z,11.79
2023-05-05T23:16:51.506Z,11.72
2023-05-05T23:21:57.091Z,11.64
2023-05-05T23:27:03.086Z,11.70
2023-05-05T23:32:08.858Z,11.73
2023-05-05T23:37:15.025Z,11.64
2023-05-05T23:42:20.648Z,11.44
2023-05-05T23:47:26.121Z,11.33
2023-05-05T23:52:31.687Z,11.35
2023-05-05T23:57:44.685Z,11.17
